Time;durP1;ratioP1;P1;durP2;ratioP2;P2;SDS_P1;SDS_P2;PMS_P1;PMS_P2;Temp;Humidity;BMP_temperature;BMP_pressure;BME280_temperature;BME280_humidity;BME280_pressure;Samples;Min_cycle;Max_cycle;Signal;HPM_P1;HPM_P2
2022/09/08 00:01:10;;;;;;;9.75;4.25;;;;;;;23.18;51.04;100805.31;5073056;28;20553;-65
2022/09/08 00:03:37;;;;;;;6.28;4.47;;;;;;;23.12;51.21;100787.75;5072530;28;20037;-66
2022/09/08 00:06:11;;;;;;;8.07;4.90;;;;;;;23.05;51.28;100786.81;5072184;28;20097;-65
2022/09/08 00:08:39;;;;;;;9.80;5.03;;;;;;;23.05;51.85;100777.75;5072536;28;20044;-65
2022/09/08 00:11:08;;;;;;;12.15;4.47;;;;;;;23.05;51.93;100769.53;5072360;28;20102;-65
2022/09/08 00:13:39;;;;;;;7.68;4.85;;;;;;;23.01;52.13;100757.22;5092453;28;20048;-66
2022/09/08 00:16:07;;;;;;;6.80;4.55;;;;;;;22.96;52.36;100760.53;5092398;28;20069;-65
2022/09/08 00:18:37;;;;;;;7.70;4.45;;;;;;;22.96;52.78;100754.22;5092384;28;20066;-65
2022/09/08 00:21:05;;;;;;;8.90;4.28;;;;;;;22.97;52.46;100766.88;5091472;28;20074;-65
2022/09/08 00:23:33;;;;;;;7.78;4.47;;;;;;;22.97;52.76;100753.16;5092388;28;20048;-65
2022/09/08 00:26:00;;;;;;;7.47;4.28;;;;;;;22.99;53.10;100757.41;5092203;28;20051;-65
2022/09/08 00:28:26;;;;;;;9.63;4.60;;;;;;;22.99;53.28;100762.88;5092222;28;20405;-65
2022/09/08 00:30:56;;;;;;;7.78;4.93;;;;;;;22.98;53.32;100758.44;5091121;28;20098;-65
2022/09/08 00:33:24;;;;;;;5.95;3.90;;;;;;;22.96;53.43;100767.91;5092615;28;20047;-66
2022/09/08 00:35:51;;;;;;;7.25;4.65;;;;;;;22.93;53.44;100769.13;5092398;28;20093;-65
2022/09/08 00:38:22;;;;;;;7.35;4.25;;;;;;;22.95;53.74;100768.94;5092208;28;20466;-66
2022/09/08 00:40:49;;;;;;;8.75;4.68;;;;;;;22.98;54.16;100768.56;5083815;28;20556;-65
2022/09/08 00:43:35;;;;;;;10.95;4.85;;;;;;;22.99;54.08;100753.81;5091882;28;20041;-65
2022/09/08 00:46:12;;;;;;;8.00;4.63;;;;;;;23.00;54.18;100747.31;5092070;28;20044;-65
2022/09/08 00:48:44;;;;;;;9.70;5.20;;;;;;;22.99;54.32;100731.91;5091642;28;20048;-64
2022/09/08 00:51:14;;;;;;;10.82;4.57;;;;;;;22.96;54.09;100724.94;5089612;28;20101;-65
2022/09/08 00:53:47;;;;;;;7.13;4.30;;;;;;;22.94;54.47;100727.00;5073952;28;20628;-66
2022/09/08 00:56:15;;;;;;;7.55;4.78;;;;;;;22.92;54.48;100717.28;5091703;28;20048;-65
2022/09/08 00:58:42;;;;;;;9.15;5.38;;;;;;;22.90;54.51;100730.31;5091849;28;20097;-66
2022/09/08 01:01:09;;;;;;;8.68;4.50;;;;;;;22.85;54.55;100738.28;5091586;28;20036;-65
2022/09/08 01:03:41;;;;;;;9.50;5.13;;;;;;;22.81;55.01;100726.84;5092208;28;20059;-65
2022/09/08 01:15:06;;;;;;;6.90;3.35;;;;;;;22.61;54.97;100693.72;5091904;28;20044;-65
2022/09/08 01:17:33;;;;;;;14.20;4.80;;;;;;;22.54;54.98;100683.72;5091772;28;20052;-65
2022/09/08 01:20:02;;;;;;;8.82;3.65;;;;;;;22.47;55.25;100691.84;5090751;28;20044;-65
2022/09/08 01:23:10;;;;;;;6.57;3.65;;;;;;;22.40;55.47;100690.91;5091810;28;20040;-65
2022/09/08 01:25:47;;;;;;;6.25;3.63;;;;;;;22.36;55.24;100706.84;5091765;28;20048;-64
2022/09/08 01:28:28;;;;;;;8.40;3.45;;;;;;;22.34;55.43;100708.94;5085421;28;20049;-65
2022/09/08 01:30:55;;;;;;;7.15;3.63;;;;;;;22.32;55.28;100704.69;5071956;28;20041;-65
2022/09/08 01:33:25;;;;;;;5.75;3.03;;;;;;;22.31;55.56;100695.63;5071524;28;20044;-65
2022/09/08 01:35:51;;;;;;;7.88;3.65;;;;;;;22.31;55.33;100689.31;5082896;28;20052;-65
2022/09/08 01:38:18;;;;;;;7.85;3.33;;;;;;;22.28;55.59;100690.50;5091676;28;20052;-66
2022/09/08 01:40:45;;;;;;;5.72;3.17;;;;;;;22.25;55.51;100690.03;5091773;28;20106;-64
2022/09/08 01:43:12;;;;;;;5.85;2.80;;;;;;;22.26;55.83;100683.53;5091900;28;20050;-65
2022/09/08 01:45:40;;;;;;;6.63;3.00;;;;;;;22.25;55.57;100674.47;5088805;28;20113;-65
2022/09/08 01:48:08;;;;;;;6.30;3.15;;;;;;;22.25;55.52;100668.16;5092041;28;20036;-66
2022/09/08 01:50:35;;;;;;;5.93;3.00;;;;;;;22.26;56.07;100669.84;5085277;28;20037;-65
2022/09/08 01:53:01;;;;;;;4.97;2.17;;;;;;;22.29;56.04;100661.25;5072338;28;20048;-65
2022/09/08 01:55:54;;;;;;;6.10;2.40;;;;;;;22.29;56.05;100653.91;5079304;28;20584;-65
2022/09/08 01:58:20;;;;;;;5.63;2.47;;;;;;;22.28;55.80;100659.56;5091084;28;20048;-65
2022/09/08 02:00:47;;;;;;;3.85;2.10;;;;;;;22.28;55.66;100667.78;5092439;28;20074;-65
2022/09/08 02:03:13;;;;;;;8.00;2.05;;;;;;;22.19;55.77;100676.06;5091792;28;20040;-65
2022/09/08 02:05:47;;;;;;;7.53;2.50;;;;;;;22.10;55.57;100671.72;5074661;28;20078;-65
2022/09/08 02:08:13;;;;;;;4.10;2.20;;;;;;;22.08;55.74;100657.41;5074365;28;20075;-65
2022/09/08 02:10:40;;;;;;;5.78;2.50;;;;;;;22.05;55.80;100654.19;5074459;28;20098;-65
2022/09/08 02:13:07;;;;;;;5.40;2.35;;;;;;;22.04;56.02;100666.16;5075159;28;20044;-65
2022/09/08 02:15:38;;;;;;;4.75;2.00;;;;;;;21.99;55.74;100655.75;5093821;28;20128;-65
2022/09/08 02:18:04;;;;;;;5.82;2.38;;;;;;;21.99;56.02;100641.25;5094541;28;20044;-65
2022/09/08 02:20:32;;;;;;;4.78;2.20;;;;;;;21.98;56.08;100626.72;5094553;28;20040;-65
2022/09/08 02:22:59;;;;;;;4.85;2.10;;;;;;;21.97;56.31;100635.97;5093970;28;20482;-65
2022/09/08 02:25:25;;;;;;;5.75;2.33;;;;;;;21.98;56.23;100634.06;5074255;28;20044;-65
2022/09/08 02:27:52;;;;;;;5.32;2.42;;;;;;;22.02;56.35;100625.31;5074194;28;20102;-65
2022/09/08 02:30:20;;;;;;;6.22;2.67;;;;;;;22.03;56.22;100621.56;5074091;28;20048;-65
2022/09/08 02:32:46;;;;;;;3.67;2.13;;;;;;;22.01;56.29;100629.06;5073934;28;20548;-65
2022/09/08 02:35:13;;;;;;;4.10;2.10;;;;;;;22.00;56.24;100627.38;5092433;28;20110;-65
2022/09/08 02:37:40;;;;;;;5.63;2.70;;;;;;;22.02;56.28;100614.38;5094336;28;20437;-65
2022/09/08 02:40:07;;;;;;;4.72;2.45;;;;;;;22.04;56.42;100611.47;5075900;28;20044;-65
2022/09/08 02:42:34;;;;;;;5.22;2.10;;;;;;;22.08;56.38;100604.59;5093886;28;20096;-65
2022/09/08 02:45:02;;;;;;;7.40;2.60;;;;;;;22.08;56.31;100599.13;5059650;28;20098;-66
2022/09/08 02:47:33;;;;;;;5.05;2.70;;;;;;;22.06;56.43;100604.78;5074023;28;20052;-65
2022/09/08 02:50:00;;;;;;;5.07;2.45;;;;;;;22.05;56.33;100600.34;5073813;28;20043;-65
2022/09/08 02:52:30;;;;;;;3.80;2.28;;;;;;;22.06;56.55;100599.31;5073596;28;20048;-65
2022/09/08 02:54:58;;;;;;;4.75;2.45;;;;;;;22.09;56.48;100600.81;5074371;28;20146;-65
2022/09/08 02:57:25;;;;;;;5.05;2.75;;;;;;;22.12;56.50;100611.38;5074011;28;20052;-65
2022/09/08 02:59:52;;;;;;;5.03;2.60;;;;;;;22.15;56.50;100608.25;5073756;28;20044;-65
2022/09/08 03:02:19;;;;;;;4.10;2.30;;;;;;;22.18;56.37;100613.34;5073499;28;20041;-66
2022/09/08 03:04:49;;;;;;;5.43;2.80;;;;;;;22.20;56.29;100611.28;5056678;28;20439;-65
2022/09/08 03:07:17;;;;;;;2.75;2.17;;;;;;;22.22;56.59;100620.13;5055665;28;20254;-65
2022/09/08 03:09:44;;;;;;;6.28;2.42;;;;;;;22.25;56.71;100618.91;5055604;28;20091;-66
2022/09/08 03:12:10;;;;;;;6.50;2.70;;;;;;;22.26;56.43;100609.66;5073192;28;20450;-65
2022/09/08 03:14:37;;;;;;;6.10;2.90;;;;;;;22.23;56.61;100621.84;5073421;28;20060;-64
2022/09/08 03:17:03;;;;;;;7.28;3.10;;;;;;;22.22;56.41;100613.81;5051876;28;20550;-65
2022/09/08 03:19:30;;;;;;;6.38;3.00;;;;;;;22.24;56.63;100619.94;5053219;28;20442;-65
2022/09/08 03:21:57;;;;;;;4.93;2.60;;;;;;;22.22;56.60;100602.88;5053204;28;20053;-65
2022/09/08 03:24:24;;;;;;;5.75;2.78;;;;;;;22.21;56.58;100602.03;5053458;28;20090;-65
2022/09/08 03:26:50;;;;;;;11.02;2.95;;;;;;;22.19;56.34;100606.84;5053172;28;20087;-64
2022/09/08 03:29:17;;;;;;;6.18;2.72;;;;;;;22.16;56.46;100612.69;5051941;28;20071;-65
2022/09/08 03:31:43;;;;;;;6.05;3.00;;;;;;;22.15;56.47;100616.47;5052775;28;20106;-64
2022/09/08 03:34:11;;;;;;;6.97;3.10;;;;;;;22.15;56.88;100614.56;5072283;28;20079;-66
2022/09/08 03:36:37;;;;;;;6.88;3.38;;;;;;;22.19;56.75;100615.03;5073064;28;20048;-65
2022/09/08 03:39:04;;;;;;;5.00;2.38;;;;;;;22.18;57.11;100608.72;5073154;28;20071;-66
2022/09/08 03:41:30;;;;;;;8.38;2.75;;;;;;;22.20;57.11;100614.00;5061424;28;20345;-66
2022/09/08 03:44:00;;;;;;;5.30;2.75;;;;;;;22.22;56.94;100608.34;5053039;28;20091;-66
2022/09/08 03:46:31;;;;;;;7.65;3.33;;;;;;;22.24;56.88;100612.59;5053110;28;20505;-66
2022/09/08 03:48:58;;;;;;;6.20;3.08;;;;;;;22.25;56.85;100608.81;5053011;28;20083;-66
2022/09/08 03:51:25;;;;;;;5.43;2.95;;;;;;;22.22;56.96;100609.19;5052676;28;20053;-65
2022/09/08 03:56:45;;;;;;;5.85;3.03;;;;;;;22.20;56.86;100614.84;5052822;28;20045;-65
2022/09/08 03:59:12;;;;;;;5.93;2.88;;;;;;;22.20;57.16;100623.06;5051485;28;20041;-66
2022/09/08 04:01:39;;;;;;;4.18;2.83;;;;;;;22.20;56.91;100634.00;5064758;28;20048;-65
2022/09/08 04:04:10;;;;;;;8.75;3.22;;;;;;;22.19;56.81;100637.78;5072797;28;20044;-65
2022/09/08 04:06:36;;;;;;;4.35;3.08;;;;;;;22.19;56.74;100637.78;5072509;28;20056;-65
2022/09/08 04:09:03;;;;;;;7.18;2.83;;;;;;;22.17;56.88;100637.13;5067310;28;20517;-65
2022/09/08 04:11:31;;;;;;;5.80;3.30;;;;;;;22.15;56.87;100636.47;5052562;28;20110;-65
2022/09/08 04:13:59;;;;;;;6.43;3.08;;;;;;;22.12;56.81;100625.06;5052793;28;20045;-65
2022/09/08 04:16:25;;;;;;;5.95;3.47;;;;;;;22.11;56.93;100620.63;5051232;28;20075;-65
2022/09/08 04:18:52;;;;;;;5.28;3.70;;;;;;;22.04;56.93;100612.31;5091391;28;20063;-64
2022/09/08 04:21:18;;;;;;;8.23;3.75;;;;;;;22.01;57.21;100615.41;5092448;28;20089;-65
2022/09/08 04:23:47;;;;;;;5.55;3.50;;;;;;;21.98;57.19;100621.25;5092286;28;20048;-65
2022/09/08 04:26:14;;;;;;;6.97;3.58;;;;;;;21.97;57.26;100613.22;5092667;28;20489;-65
2022/09/08 04:28:41;;;;;;;6.55;3.47;;;;;;;21.93;57.32;100642.84;5073410;28;20420;-64
2022/09/08 04:31:11;;;;;;;6.90;3.05;;;;;;;21.88;56.95;100650.75;5072295;28;20542;-64
2022/09/08 04:33:40;;;;;;;7.65;3.47;;;;;;;21.85;57.47;100648.41;5072571;28;20045;-64
2022/09/08 04:36:15;;;;;;;6.88;3.55;;;;;;;21.84;57.60;100657.63;5072455;28;20102;-64
2022/09/08 04:38:52;;;;;;;8.30;3.40;;;;;;;21.85;57.63;100657.44;5092383;28;20046;-65
2022/09/08 04:41:18;;;;;;;6.72;3.30;;;;;;;21.86;57.43;100653.69;5092970;28;20052;-65
2022/09/08 04:43:49;;;;;;;7.90;3.38;;;;;;;21.87;57.70;100651.78;5092824;28;20079;-64
2022/09/08 04:46:17;;;;;;;7.65;3.63;;;;;;;21.87;57.75;100649.06;5080876;28;20380;-64
2022/09/08 04:48:45;;;;;;;8.38;3.50;;;;;;;21.89;57.45;100655.19;5072830;28;20127;-65
2022/09/08 04:51:16;;;;;;;8.07;3.72;;;;;;;21.92;57.88;100656.69;5072402;28;20044;-65
2022/09/08 04:53:46;;;;;;;5.63;2.83;;;;;;;21.93;57.58;100667.44;5071597;28;20041;-64
2022/09/08 04:56:14;;;;;;;6.47;3.25;;;;;;;21.94;57.66;100660.94;5071431;28;20040;-65
2022/09/08 04:58:42;;;;;;;6.30;3.15;;;;;;;21.96;57.98;100679.91;5086833;28;20067;-65
2022/09/08 05:01:11;;;;;;;6.65;2.90;;;;;;;21.95;57.67;100673.59;5091692;28;20052;-64
2022/09/08 05:03:41;;;;;;;5.60;3.08;;;;;;;21.95;57.87;100687.25;5091707;28;20364;-64
2022/09/08 05:06:11;;;;;;;6.95;3.15;;;;;;;21.95;57.61;100678.19;5090845;28;20532;-64
2022/09/08 05:08:38;;;;;;;6.15;2.90;;;;;;;21.94;57.67;100687.44;5091470;28;20048;-64
2022/09/08 05:11:07;;;;;;;5.28;3.42;;;;;;;21.93;57.84;100681.13;5091600;28;20066;-65
2022/09/08 05:13:38;;;;;;;7.28;3.50;;;;;;;21.90;57.88;100676.03;5091602;28;20044;-64
2022/09/08 05:16:10;;;;;;;4.97;2.72;;;;;;;21.87;57.55;100682.72;5090462;28;20563;-64
2022/09/08 05:18:37;;;;;;;7.13;3.47;;;;;;;21.85;57.67;100676.59;5091824;28;20505;-64
2022/09/08 05:21:05;;;;;;;7.65;3.78;;;;;;;21.87;57.75;100677.25;5091545;28;20122;-65
2022/09/08 05:23:36;;;;;;;5.60;3.20;;;;;;;21.87;58.11;100668.19;5091470;28;20066;-64
2022/09/08 05:26:08;;;;;;;8.77;3.58;;;;;;;21.91;57.76;100665.94;5082218;28;20032;-64
2022/09/08 05:28:37;;;;;;;6.95;3.35;;;;;;;21.92;58.06;100663.03;5071132;28;20054;-64
2022/09/08 05:31:11;;;;;;;7.43;3.85;;;;;;;21.94;58.25;100662.81;5071203;28;20102;-64
2022/09/08 05:33:40;;;;;;;5.20;3.45;;;;;;;21.95;58.24;100661.78;5071039;28;20544;-64
2022/09/08 05:36:18;;;;;;;9.35;3.60;;;;;;;21.95;58.42;100665.38;5083758;28;20395;-64
2022/09/08 05:38:46;;;;;;;7.18;3.95;;;;;;;21.95;58.08;100659.06;5095531;28;20583;-65
2022/09/08 05:41:13;;;;;;;10.98;3.90;;;;;;;21.94;58.20;100665.56;5095476;28;20048;-64
2022/09/08 05:43:44;;;;;;;8.07;4.70;;;;;;;21.94;58.11;100660.94;5095891;28;20039;-64
2022/09/08 05:46:11;;;;;;;9.02;4.13;;;;;;;21.94;58.23;100660.94;5082633;28;20055;-63
2022/09/08 05:48:44;;;;;;;9.38;3.70;;;;;;;21.95;58.05;100648.13;5075180;28;20099;-64
2022/09/08 05:51:13;;;;;;;9.80;4.32;;;;;;;21.96;58.08;100658.03;5074923;28;20040;-64
2022/09/08 05:53:40;;;;;;;10.52;3.97;;;;;;;21.99;57.99;100668.59;5075009;28;20048;-65
2022/09/08 05:56:08;;;;;;;8.85;4.40;;;;;;;21.98;58.10;100665.00;5075280;28;20036;-65
2022/09/08 05:58:35;;;;;;;7.40;3.88;;;;;;;21.98;58.03;100665.00;5075107;28;20391;-64
2022/09/08 06:01:10;;;;;;;10.75;3.90;;;;;;;21.98;58.12;100666.88;5075149;28;20529;-65
2022/09/08 06:03:39;;;;;;;;;;;;;;;21.98;58.22;100666.88;5075254;28;20040;-64
2022/09/08 06:06:08;;;;;;;7.75;3.20;;;;;;;21.99;57.50;100669.44;5075723;28;19921;-64
2022/09/08 06:08:38;;;;;;;7.32;3.30;;;;;;;21.95;57.82;100661.78;5075174;28;20056;-64
2022/09/08 06:11:05;;;;;;;5.97;3.20;;;;;;;21.93;58.16;100672.91;5075392;28;20044;-65
2022/09/08 06:13:37;;;;;;;8.40;3.88;;;;;;;21.91;58.21;100671.41;5087411;28;20094;-65
2022/09/08 06:16:04;;;;;;;6.00;3.65;;;;;;;21.92;58.25;100668.47;5074546;28;20057;-64
2022/09/08 06:18:35;;;;;;;5.88;3.42;;;;;;;21.92;58.15;100667.63;5074425;28;20041;-65
2022/09/08 06:21:05;;;;;;;10.38;3.55;;;;;;;21.91;58.45;100666.78;5074353;28;20494;-64
2022/09/08 06:23:37;;;;;;;7.25;3.15;;;;;;;21.89;58.47;100663.38;5079868;28;20028;-65
2022/09/08 06:26:29;;;;;;;7.53;3.28;;;;;;;21.84;58.59;100666.69;5094761;28;20104;-64
2022/09/08 06:29:15;;;;;;;6.85;3.75;;;;;;;21.83;58.27;100673.19;5094700;28;20043;-64
2022/09/08 06:31:48;;;;;;;8.18;3.50;;;;;;;21.83;58.53;100669.59;5093761;28;20043;-65
2022/09/08 06:34:23;;;;;;;16.48;3.88;;;;;;;21.85;58.58;100675.75;5094489;28;20360;-65
2022/09/08 06:37:01;;;;;;;5.63;3.00;;;;;;;21.85;58.57;100682.06;5093177;28;20078;-65
2022/09/08 06:39:32;;;;;;;6.25;3.42;;;;;;;21.85;58.64;100684.78;5094433;28;20093;-65
2022/09/08 06:42:28;;;;;;;7.75;3.75;;;;;;;21.84;58.52;100676.78;5093798;28;20048;-65
2022/09/08 06:44:55;;;;;;;6.20;3.83;;;;;;;21.85;58.64;100682.06;5094674;28;20040;-66
2022/09/08 06:47:31;;;;;;;7.82;3.67;;;;;;;21.83;58.73;100686.00;5093956;28;20172;-66
2022/09/08 06:49:58;;;;;;;7.15;3.63;;;;;;;21.81;58.53;100688.06;5093233;28;20044;-65
2022/09/08 06:52:44;;;;;;;9.20;3.63;;;;;;;21.81;58.73;100691.66;5094144;28;20036;-66
2022/09/08 06:55:58;;;;;;;6.97;3.38;;;;;;;21.83;58.90;100686.00;5094434;28;20135;-65
2022/09/08 06:58:46;;;;;;;6.30;3.58;;;;;;;21.86;58.55;100685.63;5089560;28;20066;-65
2022/09/08 07:01:41;;;;;;;7.18;3.78;;;;;;;21.85;58.78;100689.41;5073859;28;20044;-66
2022/09/08 07:04:39;;;;;;;6.50;3.47;;;;;;;21.83;58.96;100689.59;5073808;28;20094;-66
2022/09/08 07:07:28;;;;;;;7.85;4.32;;;;;;;21.84;58.85;100679.50;5073930;28;20542;-66
2022/09/08 07:10:09;;;;;;;7.03;4.20;;;;;;;21.87;58.98;100679.13;5075041;28;20051;-65
2022/09/08 07:12:45;;;;;;;10.27;3.90;;;;;;;21.87;59.22;100676.41;5073665;28;20040;-65
2022/09/08 07:15:49;;;;;;;8.27;3.88;;;;;;;21.88;59.19;100680.84;5073930;28;20098;-66
2022/09/08 07:18:39;;;;;;;6.88;3.63;;;;;;;21.86;59.09;100688.38;5086100;28;20048;-66
2022/09/08 07:21:25;;;;;;;6.22;3.67;;;;;;;21.79;59.26;100696.47;5073461;28;20599;-65
2022/09/08 07:23:57;;;;;;;6.03;4.07;;;;;;;21.77;58.91;100693.06;5073851;28;20360;-65
2022/09/08 07:26:38;;;;;;;10.23;4.60;;;;;;;21.79;59.59;100701.94;5055813;28;20041;-66
2022/09/08 07:29:13;;;;;;;6.78;4.25;;;;;;;21.80;59.47;100697.31;5089340;28;20075;-65
2022/09/08 07:31:44;;;;;;;;;;;;;;;21.84;59.41;100704.13;5094341;28;20127;-65
2022/09/08 07:34:19;;;;;;;7.22;4.20;;;;;;;21.88;58.96;100694.50;5094048;28;19920;-65
2022/09/08 07:37:00;;;;;;;8.05;4.78;;;;;;;21.82;59.32;100700.72;5093063;28;20105;-65
2022/09/08 07:39:37;;;;;;;9.52;4.82;;;;;;;21.80;59.40;100705.53;5076188;28;20539;-66
2022/09/08 07:42:05;;;;;;;7.63;5.60;;;;;;;21.79;59.44;100698.34;5094125;28;20052;-65
2022/09/08 07:44:40;;;;;;;9.32;5.90;;;;;;;21.82;59.75;100703.44;5092897;28;20040;-66
2022/09/08 07:47:31;;;;;;;9.25;5.72;;;;;;;21.84;60.05;100696.75;5073775;28;20052;-66
2022/09/08 07:50:19;;;;;;;10.57;6.28;;;;;;;21.91;60.22;100694.13;5072648;28;20041;-66
2022/09/08 07:53:04;;;;;;;9.48;6.82;;;;;;;21.99;59.84;100688.56;5072485;28;20048;-66
2022/09/08 07:55:39;;;;;;;10.02;6.47;;;;;;;22.06;60.02;100681.34;5062378;28;20089;-65
2022/09/08 07:58:29;;;;;;;10.68;6.72;;;;;;;22.14;59.92;100686.72;5073666;28;20452;-67
2022/09/08 08:01:17;;;;;;;10.02;7.03;;;;;;;22.24;60.27;100686.44;5092746;28;20465;-66
2022/09/08 08:04:14;;;;;;;11.35;7.40;;;;;;;22.33;60.16;100695.44;5084766;28;20059;-66
2022/09/08 08:06:57;;;;;;;9.88;8.15;;;;;;;22.39;59.97;100698.28;5072400;28;20047;-67
2022/09/08 08:09:47;;;;;;;10.95;8.38;;;;;;;22.41;59.91;100692.59;5072083;28;20049;-67
2022/09/08 08:12:31;;;;;;;12.18;8.60;;;;;;;22.43;59.93;100707.81;5072076;28;20040;-67
2022/09/08 08:15:17;;;;;;;13.20;8.77;;;;;;;22.42;60.33;100699.78;5071378;28;20052;-67
2022/09/08 08:18:01;;;;;;;13.10;9.05;;;;;;;22.49;60.08;100698.84;5071911;28;20097;-66
2022/09/08 08:20:51;;;;;;;13.02;9.23;;;;;;;22.55;59.84;100702.69;5071941;28;20048;-67
2022/09/08 08:23:24;;;;;;;12.35;8.50;;;;;;;22.55;59.85;100699.97;5072975;28;20036;-68
2022/09/08 08:26:15;;;;;;;11.55;8.43;;;;;;;22.54;59.68;100695.53;5072027;28;20040;-67
2022/09/08 08:28:43;;;;;;;12.60;9.32;;;;;;;22.54;59.59;100698.25;5071977;28;20044;-67
2022/09/08 08:31:28;;;;;;;10.02;9.02;;;;;;;22.61;59.77;100701.09;5072298;28;20094;-67
2022/09/08 08:34:22;;;;;;;;;;;;;;;22.78;59.86;100697.94;5091126;28;20098;-68
2022/09/08 08:36:50;;;;;;;14.27;9.93;;;;;;;23.00;59.84;100703.47;5088419;28;19920;-68
2022/09/08 08:39:22;;;;;;;12.23;9.35;;;;;;;23.16;59.95;100703.28;5092423;28;20040;-67
2022/09/08 08:42:04;;;;;;;10.90;9.40;;;;;;;23.33;59.90;100699.22;5091488;28;20111;-67
2022/09/08 08:45:00;;;;;;;10.55;8.70;;;;;;;23.45;59.47;100700.41;5091913;28;20044;-67
2022/09/08 08:48:20;;;;;;;8.63;7.70;;;;;;;23.57;59.29;100708.97;5072718;28;20033;-66
2022/09/08 08:50:57;;;;;;;9.90;7.18;;;;;;;23.57;58.76;100706.25;5071780;28;20538;-67
2022/09/08 08:53:43;;;;;;;10.75;7.22;;;;;;;23.51;58.64;100712.47;5072361;28;20087;-68
2022/09/08 08:56:37;;;;;;;8.57;6.72;;;;;;;23.45;58.30;100710.53;5071647;28;20082;-67
2022/09/08 08:59:06;;;;;;;9.80;6.45;;;;;;;23.41;58.13;100711.97;5072007;28;20067;-67
2022/09/08 09:01:45;;;;;;;10.45;6.53;;;;;;;23.35;58.02;100712.75;5071805;28;20098;-66
2022/09/08 09:04:53;;;;;;;11.02;6.47;;;;;;;23.32;57.87;100713.13;5072461;28;20088;-67
2022/09/08 09:08:03;;;;;;;10.18;6.88;;;;;;;23.36;58.26;100715.28;5041974;28;20057;-66
2022/09/08 09:10:42;;;;;;;8.80;4.90;;;;;;;23.51;58.04;100715.22;5071092;28;20564;-66
2022/09/08 09:13:49;;;;;;;6.85;5.43;;;;;;;23.58;58.14;100710.69;5077254;28;20089;-66
2022/09/08 09:16:42;;;;;;;7.65;4.22;;;;;;;23.64;57.55;100715.38;5091205;28;20048;-66
2022/09/08 09:19:26;;;;;;;5.22;3.75;;;;;;;23.69;57.55;100712.03;5091558;28;20097;-66
2022/09/08 09:22:11;;;;;;;5.30;4.13;;;;;;;23.65;56.95;100716.22;5091418;28;20040;-66
2022/09/08 09:25:16;;;;;;;4.78;3.80;;;;;;;23.60;57.05;100714.06;5073703;28;20044;-65
2022/09/08 09:28:07;;;;;;;5.68;4.15;;;;;;;23.58;56.72;100707.09;5071305;28;20045;-67
2022/09/08 09:30:50;;;;;;;6.07;4.07;;;;;;;23.55;56.76;100710.22;5015825;28;20521;-67
2022/09/08 09:33:43;;;;;;;4.65;3.92;;;;;;;23.58;56.68;100712.56;5072018;28;20119;-67
2022/09/08 09:36:28;;;;;;;5.88;3.60;;;;;;;23.69;56.85;100706.56;5071395;28;20045;-67
2022/09/08 09:39:14;;;;;;;5.15;3.83;;;;;;;23.82;56.78;100712.19;5071170;28;20033;-67
2022/09/08 09:41:47;;;;;;;4.32;3.30;;;;;;;23.92;56.91;100712.69;5071553;28;20082;-66
2022/09/08 09:44:40;;;;;;;4.63;2.40;;;;;;;24.00;56.30;100706.19;5082190;28;20441;-67
2022/09/08 09:47:40;;;;;;;4.35;2.28;;;;;;;24.09;56.00;100719.56;5071145;28;20044;-67
2022/09/08 09:50:29;;;;;;;3.65;2.63;;;;;;;24.16;56.05;100713.28;5070968;28;20057;-67
2022/09/08 09:53:28;;;;;;;3.97;1.83;;;;;;;24.25;55.76;100712.06;5071122;28;20048;-67
2022/09/08 09:56:30;;;;;;;3.85;1.80;;;;;;;24.30;55.55;100709.59;5070985;28;20057;-67
2022/09/08 09:59:27;;;;;;;2.15;1.80;;;;;;;24.33;55.23;100714.69;5054189;28;20444;-68
2022/09/08 10:02:38;;;;;;;3.10;2.05;;;;;;;24.40;55.41;100710.91;5071852;28;20458;-68
2022/09/08 10:05:32;;;;;;;4.72;2.00;;;;;;;24.55;55.14;100707.22;5071321;28;20056;-68
2022/09/08 10:08:28;;;;;;;4.03;1.63;;;;;;;24.65;54.92;100697.56;5075500;28;20071;-67
2022/09/08 10:11:22;;;;;;;2.95;1.60;;;;;;;24.82;55.11;100703.53;5071535;28;20552;-68
2022/09/08 10:14:08;;;;;;;4.63;1.90;;;;;;;24.98;54.85;100705.13;5071463;28;20044;-67
2022/09/08 10:17:07;;;;;;;3.75;1.92;;;;;;;25.12;54.59;100697.75;5071772;28;20090;-67
2022/09/08 10:19:45;;;;;;;6.15;1.88;;;;;;;25.32;54.27;100690.44;5053527;28;20049;-67
2022/09/08 10:22:41;;;;;;;3.25;1.80;;;;;;;25.42;53.72;100699.09;5072663;28;20055;-66
2022/09/08 10:25:15;;;;;;;2.88;1.30;;;;;;;25.46;53.39;100700.38;5084400;28;20028;-66
2022/09/08 10:28:03;;;;;;;3.07;1.40;;;;;;;25.49;53.11;100694.47;5095469;28;20493;-66
2022/09/08 10:30:58;;;;;;;4.05;2.05;;;;;;;25.58;52.83;100692.34;5095382;28;20086;-66
2022/09/08 10:34:09;;;;;;;3.35;1.30;;;;;;;25.76;52.91;100697.25;5095026;28;20043;-67
2022/09/08 10:36:45;;;;;;;4.38;1.52;;;;;;;25.89;52.95;100686.25;5095805;28;20039;-67
2022/09/08 10:39:28;;;;;;;3.05;1.40;;;;;;;25.98;52.68;100694.06;5088900;28;20044;-67
2022/09/08 10:42:02;;;;;;;3.30;1.48;;;;;;;26.06;52.51;100689.44;5074120;28;20037;-66
2022/09/08 10:44:41;;;;;;;3.53;1.40;;;;;;;26.02;51.92;100693.66;5077904;28;20051;-67
2022/09/08 10:47:25;;;;;;;4.70;1.27;;;;;;;25.95;51.50;100694.50;5061050;28;20437;-66
2022/09/08 10:50:22;;;;;;;3.83;1.23;;;;;;;25.93;51.34;100682.84;5094075;28;20040;-66
2022/09/08 10:53:07;;;;;;;2.50;1.33;;;;;;;25.96;51.35;100679.66;5093245;28;20180;-67
2022/09/08 10:55:56;;;;;;;;;;;;;;;26.06;51.42;100683.94;5095222;28;20052;-67
2022/09/08 10:58:32;;;;;;;3.78;1.50;;;;;;;26.19;51.21;100684.75;5094209;28;20374;-67
2022/09/08 11:01:16;;;;;;;3.78;1.38;;;;;;;26.31;50.92;100682.16;5094402;28;20044;-68
2022/09/08 11:04:21;;;;;;;3.60;1.33;;;;;;;26.50;50.50;100675.78;5092508;28;20075;-67
2022/09/08 11:07:06;;;;;;;4.38;1.40;;;;;;;26.68;49.71;100669.56;5075948;28;20044;-67
2022/09/08 11:09:54;;;;;;;3.47;1.00;;;;;;;26.83;49.42;100678.44;5094272;28;20039;-66
2022/09/08 11:12:41;;;;;;;4.43;1.48;;;;;;;27.00;49.24;100681.56;5088167;28;20064;-67
2022/09/08 11:15:27;;;;;;;3.28;1.00;;;;;;;27.07;48.60;100676.84;5073559;28;20106;-68
2022/09/08 11:18:06;;;;;;;4.43;1.40;;;;;;;27.16;48.12;100680.19;5052365;28;20037;-67
2022/09/08 11:20:45;;;;;;;3.75;1.42;;;;;;;27.25;48.08;100678.00;5054375;28;20053;-66
2022/09/08 11:23:50;;;;;;;4.07;1.42;;;;;;;27.33;47.44;100678.59;5074632;28;20494;-70
2022/09/08 11:26:49;;;;;;;5.43;1.25;;;;;;;27.42;47.12;100681.91;5071813;28;20460;-68
2022/09/08 11:29:17;;;;;;;3.83;1.00;;;;;;;27.43;46.86;100678.09;5073453;28;20486;-68
2022/09/08 11:32:05;;;;;;;3.80;1.02;;;;;;;27.48;46.68;100672.75;5070100;28;20047;-69
2022/09/08 11:35:14;;;;;;;4.03;1.08;;;;;;;27.59;46.37;100673.97;5073335;28;20045;-68
2022/09/08 11:38:00;;;;;;;4.82;1.50;;;;;;;27.73;46.29;100676.41;5072233;28;20045;-70
2022/09/08 11:40:55;;;;;;;3.47;1.38;;;;;;;27.79;45.58;100670.00;5071757;28;20052;-70
2022/09/08 11:44:12;;;;;;;4.53;1.30;;;;;;;27.80;45.51;100671.69;5072870;28;20040;-70
2022/09/08 11:46:47;;;;;;;;;;;;;;;27.86;45.51;100669.94;5073699;28;20067;-68
2022/09/08 11:49:36;;;;;;;4.20;1.20;;;;;;;27.90;45.40;100667.56;5068471;28;19920;-68
2022/09/08 11:52:55;;;;;;;4.85;1.20;;;;;;;27.95;45.16;100670.50;5072499;28;20087;-68
2022/09/08 11:55:57;;;;;;;4.78;1.30;;;;;;;28.03;44.84;100661.91;5040040;28;20503;-69
2022/09/08 11:58:56;;;;;;;3.90;1.20;;;;;;;28.15;44.88;100662.84;5073071;28;20045;-69
2022/09/08 12:01:44;;;;;;;4.93;1.33;;;;;;;28.28;43.87;100650.88;5053210;28;20041;-66
2022/09/08 12:04:32;;;;;;;3.55;1.10;;;;;;;28.33;44.22;100659.31;5053047;28;20110;-66
2022/09/08 12:07:34;;;;;;;3.22;1.35;;;;;;;28.45;43.73;100646.44;5052542;28;20064;-66
2022/09/08 12:10:32;;;;;;;3.75;1.15;;;;;;;28.55;43.77;100640.34;5051177;28;20048;-66
2022/09/08 12:13:46;;;;;;;4.07;1.25;;;;;;;28.69;43.40;100647.41;5050929;28;20049;-66
2022/09/08 12:16:43;;;;;;;5.55;1.10;;;;;;;28.69;43.11;100645.47;5052427;28;20045;-66
2022/09/08 12:19:48;;;;;;;2.80;1.00;;;;;;;28.56;43.04;100642.88;5052064;28;20178;-66
2022/09/08 12:22:25;;;;;;;3.60;1.27;;;;;;;28.42;42.71;100644.97;5051811;28;20053;-66
2022/09/08 12:25:07;;;;;;;5.10;1.40;;;;;;;28.26;42.64;100644.75;5052163;28;20045;-66